createdAt,value
2023-01-22T00:01:36.216Z,95125.05
2023-01-22T00:04:05.278Z,95130.48
2023-01-22T00:06:34.100Z,95135.58
2023-01-22T00:09:04.049Z,95147.96
2023-01-22T00:11:32.699Z,95154.41
2023-01-22T00:14:01.515Z,95162.57
2023-01-22T00:16:30.272Z,95167.03
2023-01-22T00:18:59.220Z,95162.78
2023-01-22T00:21:27.987Z,95163.32
2023-01-22T00:23:56.687Z,95155.00
2023-01-22T00:26:25.325Z,95156.98
2023-01-22T00:28:54.095Z,95163.92
2023-01-22T00:31:23.940Z,95149.55
2023-01-22T00:33:52.706Z,95144.23
2023-01-22T00:36:23.300Z,95142.81
2023-01-22T00:38:52.827Z,95138.74
2023-01-22T00:41:22.215Z,95136.73
2023-01-22T00:43:52.871Z,95138.27
2023-01-22T00:46:21.991Z,95138.95
2023-01-22T00:48:51.348Z,95153.06
2023-01-22T00:51:20.394Z,95153.87
2023-01-22T00:53:49.306Z,95153.17
2023-01-22T00:56:18.067Z,95158.98
2023-01-22T00:58:46.851Z,95164.80
2023-01-22T01:01:16.863Z,95168.09
2023-01-22T01:03:46.637Z,95172.59
2023-01-22T01:06:20.947Z,95177.45
2023-01-22T01:08:50.831Z,95183.41
2023-01-22T01:11:26.202Z,95190.63
2023-01-22T01:13:55.619Z,95188.48
2023-01-22T01:16:27.020Z,95190.21
2023-01-22T01:19:04.428Z,95192.80
2023-01-22T01:21:34.042Z,95188.95
2023-01-22T01:24:03.451Z,95184.56
2023-01-22T01:26:33.602Z,95195.55
2023-01-22T01:29:04.356Z,95198.23
2023-01-22T01:31:33.392Z,95197.05
2023-01-22T01:34:02.103Z,95204.13
2023-01-22T01:36:47.800Z,95199.69
2023-01-22T01:39:04.444Z,95214.27
2023-01-22T01:41:33.238Z,95220.05
2023-01-22T01:44:17.292Z,95223.17
2023-01-22T01:46:58.305Z,95231.41
2023-01-22T01:49:32.694Z,95228.42
2023-01-22T01:52:07.583Z,95226.88
2023-01-22T01:54:40.323Z,95224.31
2023-01-22T01:57:12.503Z,95226.91
2023-01-22T01:59:42.936Z,95226.61
2023-01-22T02:02:11.899Z,95227.67
2023-01-22T02:04:40.692Z,95227.55
2023-01-22T02:07:10.867Z,95227.70
2023-01-22T02:09:39.600Z,95231.99
2023-01-22T02:12:09.990Z,95219.06
2023-01-22T02:14:41.753Z,95213.31
2023-01-22T02:17:13.310Z,95209.16
2023-01-22T02:19:45.438Z,95210.64
2023-01-22T02:22:27.063Z,95215.99
2023-01-22T02:24:53.843Z,95225.46
2023-01-22T02:27:23.106Z,95232.98
2023-01-22T02:29:52.710Z,95226.59
2023-01-22T02:32:22.430Z,95229.50
2023-01-22T02:34:51.955Z,95231.69
2023-01-22T02:37:23.005Z,95223.52
2023-01-22T02:39:52.076Z,95218.59
2023-01-22T02:42:20.819Z,95218.45
2023-01-22T02:44:54.306Z,95219.02
2023-01-22T02:47:34.628Z,95216.81
2023-01-22T02:50:04.066Z,95220.08
2023-01-22T02:52:36.127Z,95227.48
2023-01-22T02:55:05.187Z,95233.37
2023-01-22T02:57:33.980Z,95237.50
2023-01-22T03:00:03.177Z,95234.68
2023-01-22T03:02:31.855Z,95234.45
2023-01-22T03:05:02.275Z,95235.96
2023-01-22T03:07:34.109Z,95240.13
2023-01-22T03:10:02.901Z,95243.64
2023-01-22T03:12:50.652Z,95249.77
2023-01-22T03:15:38.542Z,95245.86
2023-01-22T03:18:27.094Z,95201.59
2023-01-22T03:21:15.601Z,95230.34
2023-01-22T03:23:55.975Z,95245.37
2023-01-22T03:26:26.563Z,95242.75
2023-01-22T03:28:55.371Z,95235.04
2023-01-22T03:31:24.260Z,95237.77
2023-01-22T03:33:53.455Z,95234.29
2023-01-22T03:36:22.045Z,95236.27
2023-01-22T03:38:52.369Z,95240.89
2023-01-22T03:41:21.159Z,95240.72
2023-01-22T03:43:49.840Z,95229.15
2023-01-22T03:46:20.663Z,95232.70
2023-01-22T03:48:54.099Z,95235.05
2023-01-22T03:51:23.257Z,95236.50
2023-01-22T03:53:52.231Z,95237.25
2023-01-22T03:56:25.685Z,95234.82
2023-01-22T03:58:56.578Z,95233.95
2023-01-22T04:01:28.034Z,95236.75
2023-01-22T04:03:56.709Z,95245.03
2023-01-22T04:06:25.943Z,95242.84
2023-01-22T04:08:59.179Z,95249.45
2023-01-22T04:11:41.239Z,95255.17
2023-01-22T04:14:11.677Z,95254.09
2023-01-22T04:16:55.159Z,95263.10
2023-01-22T04:19:44.369Z,95262.45
2023-01-22T04:22:39.179Z,95265.20
2023-01-22T04:25:07.714Z,95272.58
2023-01-22T04:27:49.324Z,95283.83
2023-01-22T04:33:47.266Z,95276.55
2023-01-22T04:36:15.232Z,95283.05
2023-01-22T04:38:44.146Z,95285.47
2023-01-22T04:42:03.949Z,95289.77
2023-01-22T05:02:17.101Z,95325.86
2023-01-22T05:04:59.083Z,95333.33
2023-01-22T05:14:18.317Z,95339.11
2023-01-22T05:16:47.106Z,95346.95
2023-01-22T05:22:16.297Z,95352.45
2023-01-22T05:28:14.808Z,95356.73
2023-01-22T05:33:33.915Z,95356.95
2023-01-22T05:36:03.922Z,95366.67
2023-01-22T05:38:32.721Z,95372.98
2023-01-22T05:41:01.392Z,95379.38
2023-01-22T05:43:30.600Z,95390.92
2023-01-22T05:46:03.529Z,95403.24
2023-01-22T05:48:35.447Z,95409.11
2023-01-22T05:51:07.736Z,95416.74
2023-01-22T05:53:37.506Z,95415.43
2023-01-22T05:56:07.439Z,95418.86
2023-01-22T05:58:36.174Z,95424.48
2023-01-22T06:01:04.999Z,95432.43
2023-01-22T06:03:34.054Z,95425.81
2023-01-22T06:06:05.170Z,95427.98
2023-01-22T06:08:34.943Z,95428.53
2023-01-22T06:11:05.727Z,95431.29
2023-01-22T06:13:35.172Z,95437.44
2023-01-22T06:16:04.218Z,95446.89
2023-01-22T06:18:33.166Z,95449.12
2023-01-22T06:21:04.586Z,95448.43
2023-01-22T06:23:33.668Z,95449.75
2023-01-22T06:26:03.476Z,95452.39
2023-01-22T06:28:32.495Z,95454.78
2023-01-22T06:31:06.455Z,95456.08
2023-01-22T06:33:48.938Z,95458.75
2023-01-22T06:36:16.637Z,95468.22
2023-01-22T06:38:45.520Z,95472.38
2023-01-22T06:41:14.510Z,95466.84
2023-01-22T06:43:43.254Z,95463.98
2023-01-22T06:46:12.008Z,95471.94
2023-01-22T06:48:42.386Z,95474.12
2023-01-22T06:51:11.947Z,95480.13
2023-01-22T06:53:41.086Z,95475.96
2023-01-22T06:56:10.076Z,95479.56
2023-01-22T06:58:38.772Z,95489.66
2023-01-22T07:01:08.476Z,95489.14
2023-01-22T07:03:37.128Z,95497.44
2023-01-22T07:06:06.262Z,95501.82
2023-01-22T07:08:35.525Z,95505.81
2023-01-22T07:11:07.642Z,95511.48
2023-01-22T07:13:35.213Z,95507.80
2023-01-22T07:16:18.994Z,95507.83
2023-01-22T07:18:47.768Z,95506.25
2023-01-22T07:21:16.363Z,95507.45
2023-01-22T07:23:45.241Z,95502.05
2023-01-22T07:26:19.326Z,95507.58
2023-01-22T07:28:49.923Z,95502.93
2023-01-22T07:31:19.048Z,95510.98
2023-01-22T07:33:47.790Z,95505.81
2023-01-22T07:36:16.433Z,95517.54
2023-01-22T07:38:45.162Z,95510.84
2023-01-22T07:41:25.206Z,95510.31
2023-01-22T07:43:44.710Z,95513.23
2023-01-22T07:46:13.385Z,95517.62
2023-01-22T07:48:42.712Z,95518.51
2023-01-22T07:51:13.111Z,95522.48
2023-01-22T07:53:43.049Z,95528.84
2023-01-22T07:56:11.794Z,95535.61
2023-01-22T07:58:41.830Z,95527.45
2023-01-22T08:01:11.645Z,95528.70
2023-01-22T08:03:40.854Z,95535.83
2023-01-22T08:06:15.147Z,95530.40
2023-01-22T08:08:44.334Z,95534.59
2023-01-22T08:11:13.253Z,95541.16
2023-01-22T08:13:41.810Z,95535.41
2023-01-22T08:16:10.613Z,95541.34
2023-01-22T08:18:39.264Z,95537.81
2023-01-22T08:21:08.010Z,95546.02
2023-01-22T08:23:36.711Z,95536.37
2023-01-22T08:26:05.609Z,95555.17
2023-01-22T08:28:34.249Z,95551.01
2023-01-22T08:31:04.535Z,95557.24
2023-01-22T08:33:34.562Z,95555.91
2023-01-22T08:36:03.231Z,95551.19
2023-01-22T08:38:31.897Z,95561.28
2023-01-22T08:41:00.728Z,95563.27
2023-01-22T08:43:30.154Z,95563.55
2023-01-22T08:46:04.298Z,95557.25
2023-01-22T08:48:34.401Z,95558.17
2023-01-22T08:51:06.180Z,95554.80
2023-01-22T08:53:34.947Z,95558.31
2023-01-22T08:59:17.346Z,95560.70
2023-01-22T09:01:52.154Z,95564.82
2023-01-22T09:04:20.809Z,95560.50
2023-01-22T09:06:49.435Z,95557.27
2023-01-22T09:09:18.224Z,95560.56
2023-01-22T09:11:47.040Z,95559.38
2023-01-22T09:14:16.174Z,95560.78
2023-01-22T09:16:45.210Z,95559.38
2023-01-22T09:19:13.966Z,95561.86
2023-01-22T09:21:42.546Z,95555.89
2023-01-22T09:24:11.193Z,95551.30
2023-01-22T09:26:40.674Z,95562.52
2023-01-22T09:35:21.577Z,95557.19
2023-01-22T09:37:52.449Z,95548.78
2023-01-22T09:46:42.499Z,95552.94
2023-01-22T09:49:20.836Z,95556.22
2023-01-22T09:58:25.858Z,95553.88
2023-01-22T10:34:31.843Z,95538.69
2023-01-22T10:37:18.440Z,95532.52
2023-01-22T10:39:50.907Z,95536.47
2023-01-22T10:42:23.271Z,95541.70
2023-01-22T10:45:13.437Z,95547.31
2023-01-22T10:47:43.797Z,95542.48
2023-01-22T10:50:15.224Z,95542.22
2023-01-22T10:52:46.686Z,95541.63
2023-01-22T10:55:27.017Z,95543.31
2023-01-22T10:58:03.053Z,95541.70
2023-01-22T11:00:50.465Z,95540.92
2023-01-22T11:03:17.149Z,95537.17
2023-01-22T11:05:47.823Z,95544.95
2023-01-22T11:08:19.701Z,95547.65
2023-01-22T11:10:54.196Z,95549.23
2023-01-22T11:13:31.809Z,95546.00
2023-01-22T11:16:20.845Z,95546.73
2023-01-22T11:18:56.974Z,95541.95
2023-01-22T11:21:40.435Z,95551.88
2023-01-22T11:24:24.039Z,95549.42
2023-01-22T11:27:24.184Z,95550.92
2023-01-22T11:30:01.572Z,95548.02
2023-01-22T11:32:51.429Z,95549.87
2023-01-22T11:35:29.585Z,95546.81
2023-01-22T11:38:01.294Z,95544.63
2023-01-22T11:40:35.650Z,95539.84
2023-01-22T11:43:26.739Z,95542.98
2023-01-22T11:46:07.275Z,95544.84
2023-01-22T11:48:59.822Z,95547.31
2023-01-22T11:51:41.982Z,95535.84
2023-01-22T11:54:30.605Z,95539.27
2023-01-22T11:57:19.523Z,95541.72
2023-01-22T12:00:06.140Z,95538.20
2023-01-22T12:03:07.178Z,95539.54
2023-01-22T12:05:51.180Z,95544.06
2023-01-22T12:08:42.193Z,95542.84
2023-01-22T12:11:13.849Z,95546.80
2023-01-22T12:13:54.760Z,95541.22
2023-01-22T12:16:32.581Z,95537.39
2023-01-22T12:19:13.129Z,95541.49
2023-01-22T12:21:46.424Z,95538.37
2023-01-22T12:24:24.021Z,95539.90
2023-01-22T12:27:04.957Z,95538.88
2023-01-22T12:29:57.701Z,95531.22
2023-01-22T12:32:30.213Z,95537.97
2023-01-22T12:35:07.614Z,95544.16
2023-01-22T12:37:58.847Z,95539.48
2023-01-22T12:40:33.393Z,95539.09
2023-01-22T12:43:07.191Z,95540.94
2023-01-22T12:46:11.477Z,95542.45
2023-01-22T12:48:46.456Z,95551.66
2023-01-22T12:51:27.122Z,95549.75
2023-01-22T12:53:57.527Z,95552.27
2023-01-22T12:57:26.988Z,95557.42
2023-01-22T13:02:58.305Z,95563.40
2023-01-22T13:05:32.800Z,95560.73
2023-01-22T13:08:22.620Z,95571.53
2023-01-22T13:11:00.309Z,95569.89
2023-01-22T13:13:35.281Z,95573.34
2023-01-22T13:16:10.174Z,95562.58
2023-01-22T13:18:44.275Z,95579.93
2023-01-22T13:21:19.048Z,95584.58
2023-01-22T13:23:51.359Z,95583.23
2023-01-22T13:26:22.938Z,95584.11
2023-01-22T13:29:00.181Z,95589.28
2023-01-22T13:31:29.210Z,95584.02
2023-01-22T13:34:06.610Z,95589.59
2023-01-22T13:36:42.734Z,95586.61
2023-01-22T13:39:23.018Z,95590.72
2023-01-22T13:42:12.997Z,95592.69
2023-01-22T13:48:28.029Z,95593.91
2023-01-22T13:51:05.858Z,95596.27
2023-01-22T13:53:50.499Z,95598.27
2023-01-22T13:56:28.817Z,95595.67
2023-01-22T13:59:09.625Z,95591.31
2023-01-22T16:49:53.764Z,95681.28
2023-01-22T16:52:23.239Z,95683.59
2023-01-22T16:54:52.711Z,95687.59
2023-01-22T16:57:21.314Z,95688.91
2023-01-22T17:00:01.180Z,95698.53
2023-01-22T17:02:24.363Z,95699.86
2023-01-22T17:04:54.059Z,95704.99
2023-01-22T17:07:33.639Z,95703.56
2023-01-22T17:09:54.899Z,95697.47
2023-01-22T17:12:23.545Z,95694.30
2023-01-22T17:14:52.740Z,95698.22
2023-01-22T17:17:21.470Z,95700.58
2023-01-22T17:19:50.082Z,95701.19
2023-01-22T17:22:18.749Z,95702.52
2023-01-22T17:24:52.726Z,95702.47
2023-01-22T17:27:21.696Z,95701.35
2023-01-22T17:29:51.455Z,95700.23
2023-01-22T17:32:20.631Z,95704.17
2023-01-22T17:34:49.416Z,95704.28
2023-01-22T17:37:18.224Z,95713.28
2023-01-22T17:39:48.472Z,95717.48
2023-01-22T17:42:18.552Z,95722.36
2023-01-22T17:44:47.665Z,95723.48
2023-01-22T17:47:16.527Z,95724.39
2023-01-22T17:49:46.849Z,95724.59
2023-01-22T17:52:20.574Z,95724.81
2023-01-22T17:54:49.404Z,95727.75
2023-01-22T17:57:18.019Z,95733.80
2023-01-22T17:59:46.780Z,95736.77
2023-01-22T18:06:00.425Z,95750.25
2023-01-22T18:08:35.166Z,95746.99
2023-01-22T18:11:09.785Z,95748.05
2023-01-22T18:13:38.840Z,95749.45
2023-01-22T18:16:10.081Z,95753.03
2023-01-22T18:18:39.514Z,95753.59
2023-01-22T18:21:10.483Z,95754.50
2023-01-22T18:23:39.128Z,95754.01
2023-01-22T18:26:09.250Z,95758.87
2023-01-22T18:28:40.386Z,95764.96
2023-01-22T18:31:11.784Z,95761.88
2023-01-22T18:33:44.347Z,95761.81
2023-01-22T18:36:24.601Z,95762.27
2023-01-22T18:38:54.069Z,95764.27
2023-01-22T18:41:25.370Z,95760.63
2023-01-22T18:43:58.772Z,95763.15
2023-01-22T18:46:34.396Z,95764.06
2023-01-22T18:49:05.429Z,95767.88
2023-01-22T18:54:31.841Z,95765.49
2023-01-22T18:57:01.027Z,95773.13
2023-01-22T18:59:29.793Z,95773.72
2023-01-22T19:01:58.769Z,95780.44
2023-01-22T19:04:29.295Z,95784.95
2023-01-22T19:07:00.636Z,95783.41
2023-01-22T19:09:31.160Z,95784.30
2023-01-22T19:11:59.985Z,95782.36
2023-01-22T19:14:28.794Z,95783.23
2023-01-22T19:16:58.942Z,95785.20
2023-01-22T19:19:27.663Z,95787.65
2023-01-22T19:21:58.056Z,95773.44
2023-01-22T19:24:28.558Z,95781.70
2023-01-22T19:26:58.273Z,95780.27
2023-01-22T19:29:27.767Z,95772.70
2023-01-22T19:31:57.486Z,95781.52
2023-01-22T19:34:28.764Z,95778.61
2023-01-22T19:37:03.492Z,95778.58
2023-01-22T19:39:32.481Z,95780.79
2023-01-22T19:42:04.725Z,95779.14
2023-01-22T19:44:35.506Z,95780.86
2023-01-22T19:47:04.497Z,95773.72
2023-01-22T19:49:33.508Z,95789.44
2023-01-22T19:52:07.031Z,95778.66
2023-01-22T19:54:36.414Z,95775.86
2023-01-22T19:57:10.018Z,95781.77
2023-01-22T20:36:35.710Z,95766.67
2023-01-22T20:38:03.083Z,95762.64
2023-01-22T20:40:47.463Z,95765.86
2023-01-22T20:43:17.891Z,95767.45
2023-01-22T20:45:49.720Z,95766.85
2023-01-22T21:22:01.169Z,95769.91
2023-01-22T21:24:29.834Z,95765.92
2023-01-22T21:27:00.859Z,95767.92
2023-01-22T21:29:31.995Z,95767.70
2023-01-22T21:32:04.618Z,95764.69
2023-01-22T21:34:33.573Z,95753.49
2023-01-22T21:37:02.243Z,95759.66
2023-01-22T21:39:31.645Z,95757.53
2023-01-22T21:42:05.141Z,95757.25
2023-01-22T21:44:51.730Z,95752.80
2023-01-22T21:47:20.382Z,95762.48
2023-01-22T21:49:50.000Z,95754.08
2023-01-22T21:52:18.497Z,95759.61
2023-01-22T21:54:47.032Z,95756.70
2023-01-22T21:57:17.215Z,95765.03
2023-01-22T21:59:46.669Z,95769.34
2023-01-22T22:02:19.779Z,95766.83
2023-01-22T22:05:00.915Z,95764.44
2023-01-22T22:07:29.590Z,95758.42
2023-01-22T22:09:58.256Z,95759.72
2023-01-22T22:12:28.596Z,95754.12
2023-01-22T22:14:57.282Z,95765.98
2023-01-22T22:17:25.968Z,95774.77
2023-01-22T22:19:55.660Z,95783.30
2023-01-22T22:22:24.490Z,95773.44
2023-01-22T22:24:56.050Z,95774.77
2023-01-22T22:27:27.596Z,95770.33
2023-01-22T22:29:55.619Z,95773.72
2023-01-22T22:32:25.014Z,95766.72
2023-01-22T22:34:55.132Z,95768.40
2023-01-22T22:37:23.786Z,95763.42
2023-01-22T22:39:52.407Z,95757.76
2023-01-22T22:48:44.459Z,95753.83
2023-01-22T22:51:09.948Z,95762.50
2023-01-22T22:56:59.802Z,95749.66
2023-01-22T23:02:23.943Z,95756.17
2023-01-22T23:05:10.437Z,95744.31
2023-01-22T23:07:40.970Z,95750.83
2023-01-22T23:10:13.534Z,95752.33
2023-01-22T23:12:45.121Z,95752.11
2023-01-22T23:15:17.338Z,95750.51
2023-01-22T23:17:50.855Z,95754.92
2023-01-22T23:20:52.465Z,95757.83
2023-01-22T23:23:49.760Z,95761.78
2023-01-22T23:26:25.827Z,95762.45
2023-01-22T23:28:58.959Z,95761.09
2023-01-22T23:31:34.452Z,95758.08
2023-01-22T23:40:15.492Z,95766.58
2023-01-22T23:42:45.716Z,95763.95
2023-01-22T23:45:20.136Z,95762.66
2023-01-22T23:47:51.923Z,95763.76
2023-01-22T23:50:20.918Z,95764.11
2023-01-22T23:52:51.710Z,95759.21
2023-01-22T23:55:20.561Z,95756.37
2023-01-22T23:57:49.472Z,95753.39
